Time;durP1;ratioP1;P1;durP2;ratioP2;P2;SDS_P1;SDS_P2;PMS_P1;PMS_P2;Temp;Humidity;BMP_temperature;BMP_pressure;BME280_temperature;BME280_humidity;BME280_pressure;Samples;Min_cycle;Max_cycle;Signal;HPM_P1;HPM_P2
2020/12/23 00:00:34;;;;;;;;;78.80;59.60;;;;;-0.18;62.93;101767.86;474361;115;388087;-75
2020/12/23 00:01:38;;;;;;;;;72.60;57.40;;;;;-0.18;63.11;101762.63;474371;115;387207;-74
2020/12/23 00:02:43;;;;;;;;;76.70;56.80;;;;;-0.16;62.81;101763.47;474855;115;387726;-77
2020/12/23 00:03:47;;;;;;;;;73.36;56.27;;;;;-0.09;63.13;101762.51;474806;115;388797;-76
2020/12/23 00:04:51;;;;;;;;;76.80;56.40;;;;;-0.10;63.29;101765.16;474841;115;388319;-76
2020/12/23 00:05:54;;;;;;;;;73.70;59.60;;;;;-0.10;62.99;101765.16;463342;118;387033;-77
2020/12/23 00:06:58;;;;;;;;;72.50;57.90;;;;;-0.15;63.58;101762.59;463761;118;384935;-77
2020/12/23 00:08:02;;;;;;;;;78.20;60.00;;;;;-0.15;63.58;101762.59;474372;115;387037;-76
2020/12/23 00:09:06;;;;;;;;;71.40;55.80;;;;;-0.22;63.37;101767.91;474801;115;387553;-76
2020/12/23 00:10:10;;;;;;;;;73.90;58.30;;;;;-0.24;63.71;101765.33;474173;115;387911;-76
2020/12/23 00:11:16;;;;;;;;;68.50;58.50;;;;;-0.23;63.58;101764.45;474819;115;386698;-77
2020/12/23 00:12:20;;;;;;;;;69.90;57.00;;;;;-0.23;63.58;101764.45;474149;115;386376;-76
2020/12/23 00:13:24;;;;;;;;;72.40;58.20;;;;;-0.19;63.60;101773.97;474828;115;386700;-76
2020/12/23 00:14:27;;;;;;;;;67.80;52.90;;;;;-0.19;63.78;101768.73;474901;115;387454;-78
2020/12/23 00:15:32;;;;;;;;;71.70;55.30;;;;;-0.18;63.45;101772.22;474506;115;388255;-76
2020/12/23 00:16:36;;;;;;;;;66.70;53.90;;;;;-0.19;63.43;101766.13;474920;115;387393;-77
2020/12/23 00:17:40;;;;;;;;;75.00;58.40;;;;;-0.18;63.59;101773.09;474988;115;387741;-78
2020/12/23 00:18:44;;;;;;;;;65.70;54.50;;;;;-0.14;64.04;101771.30;475064;115;387275;-78
2020/12/23 00:19:48;;;;;;;;;70.20;58.90;;;;;-0.13;63.90;101763.42;474927;115;387269;-77
2020/12/23 00:20:52;;;;;;;;;70.70;56.10;;;;;-0.13;63.90;101763.42;474341;115;386953;-79
2020/12/23 00:21:56;;;;;;;;;70.70;57.80;;;;;-0.12;64.33;101769.52;474795;115;387587;-77
2020/12/23 00:22:59;;;;;;;;;74.20;60.00;;;;;-0.12;64.33;101769.52;474384;115;386256;-79
2020/12/23 00:24:03;;;;;;;;;71.20;57.30;;;;;-0.18;64.08;101767.86;474378;115;386836;-77
2020/12/23 00:25:07;;;;;;;;;74.40;59.10;;;;;-0.20;64.40;101759.19;474831;115;386344;-77
2020/12/23 00:26:11;;;;;;;;;70.00;56.40;;;;;-0.20;64.40;101759.19;474767;115;386933;-78
2020/12/23 00:27:18;;;;;;;;;68.70;56.50;;;;;-0.15;64.16;101759.11;474570;115;386424;-76
2020/12/23 00:28:22;;;;;;;;;63.40;51.70;;;;;-0.15;63.96;101757.36;474583;115;386886;-75
2020/12/23 00:29:26;;;;;;;;;74.90;57.90;;;;;-0.20;64.38;101756.57;474845;115;387123;-77
2020/12/23 00:30:30;;;;;;;;;70.60;56.10;;;;;-0.18;64.34;101754.79;474951;115;386369;-76
2020/12/23 00:31:34;;;;;;;;;73.00;58.30;;;;;-0.21;64.63;101757.45;474833;115;387225;-78
2020/12/23 00:32:38;;;;;;;;;75.50;57.70;;;;;-0.21;64.63;101757.45;474395;115;385921;-75
2020/12/23 00:33:42;;;;;;;;;68.50;56.60;;;;;-0.23;64.81;101759.23;474892;115;386851;-75
2020/12/23 00:34:46;;;;;;;;;72.60;57.30;;;;;-0.23;64.81;101759.23;474393;115;386856;-76
2020/12/23 00:35:49;;;;;;;;;67.70;54.30;;;;;-0.18;64.17;101760.02;474837;115;387541;-77
2020/12/23 00:36:54;;;;;;;;;73.60;59.30;;;;;-0.18;64.17;101760.02;474351;115;386354;-76
2020/12/23 00:37:58;;;;;;;;;70.90;58.10;;;;;-0.20;64.82;101759.19;463625;117;386882;-77
2020/12/23 00:39:02;;;;;;;;;67.90;56.50;;;;;-0.22;64.43;101757.45;464139;118;385428;-76
2020/12/23 00:40:06;;;;;;;;;61.60;52.50;;;;;-0.29;64.47;101759.31;474365;115;386093;-77
2020/12/23 00:41:10;;;;;;;;;65.80;51.90;;;;;-0.32;64.77;101758.48;474866;115;386770;-77
2020/12/23 00:42:14;;;;;;;;;66.40;53.30;;;;;-0.32;64.53;101751.48;474806;115;386510;-75
2020/12/23 00:43:18;;;;;;;;;69.20;53.00;;;;;-0.28;64.73;101757.53;474800;115;387208;-75
2020/12/23 00:44:22;;;;;;;;;67.80;53.90;;;;;-0.27;64.50;101756.66;474862;115;386850;-74
2020/12/23 00:45:26;;;;;;;;;67.40;52.80;;;;;-0.33;64.43;101755.00;474831;115;386496;-75
2020/12/23 00:46:30;;;;;;;;;59.10;49.70;;;;;-0.28;64.63;101753.17;474458;115;386506;-76
2020/12/23 00:47:33;;;;;;;;;58.70;45.30;;;;;-0.28;65.00;101755.79;474438;115;386000;-74
2020/12/23 00:48:37;;;;;;;;;63.10;51.60;;;;;-0.28;65.00;101755.79;465844;117;386508;-75
2020/12/23 00:49:41;;;;;;;;;65.30;48.20;;;;;-0.34;65.07;101749.77;467741;117;388710;-75
2020/12/23 00:50:45;;;;;;;;;59.90;49.20;;;;;-0.34;65.34;101748.03;474820;115;386688;-74
2020/12/23 00:51:51;;;;;;;;;61.10;46.90;;;;;-0.34;65.34;101748.03;474816;115;386287;-75
2020/12/23 00:52:54;;;;;;;;;63.70;49.20;;;;;-0.30;65.50;101748.86;474591;115;386874;-72
2020/12/23 00:53:59;;;;;;;;;63.50;50.90;;;;;-0.33;64.89;101746.28;474355;115;386252;-73
2020/12/23 00:55:02;;;;;;;;;68.00;52.60;;;;;-0.33;64.89;101746.28;474843;115;388351;-72
2020/12/23 00:56:09;;;;;;;;;60.30;48.30;;;;;-0.33;64.94;101744.54;474425;115;387043;-72
2020/12/23 00:57:13;;;;;;;;;56.20;44.90;;;;;-0.37;65.38;101748.06;465913;116;385752;-72
2020/12/23 00:58:16;;;;;;;;;58.90;47.30;;;;;-0.37;65.77;101744.58;468193;117;386345;-73
2020/12/23 00:59:20;;;;;;;;;65.70;51.60;;;;;-0.36;65.29;101741.09;475805;114;387219;-73
2020/12/23 01:00:24;;;;;;;;;66.50;51.70;;;;;-0.34;65.40;101742.80;475892;114;386608;-72
2020/12/23 01:01:28;;;;;;;;;69.40;55.30;;;;;-0.33;65.33;101744.54;474842;115;384848;-73
2020/12/23 01:02:32;;;;;;;;;67.00;55.40;;;;;-0.31;65.26;101739.28;474394;115;386292;-74
2020/12/23 01:03:36;;;;;;;;;40.60;31.80;;;;;-0.33;64.88;101736.70;474975;115;381566;-73
2020/12/23 01:04:40;;;;;;;;;65.00;54.60;;;;;-0.33;64.88;101736.70;474829;115;386234;-74
2020/12/23 01:05:44;;;;;;;;;66.00;52.40;;;;;-0.32;64.74;101735.79;474353;115;385730;-74
2020/12/23 01:06:48;;;;;;;;;63.30;49.30;;;;;-0.31;64.76;101729.69;474839;115;386554;-72
2020/12/23 01:07:52;;;;;;;;;65.40;55.00;;;;;-0.31;65.37;101734.92;474461;115;385982;-72
2020/12/23 01:08:55;;;;;;;;;66.90;53.60;;;;;-0.31;65.37;101734.92;474810;115;386603;-72
2020/12/23 01:09:59;;;;;;;;;54.60;46.00;;;;;-0.37;65.66;101729.77;474814;115;386080;-72
2020/12/23 01:11:05;;;;;;;;;65.50;55.00;;;;;-0.46;65.58;101724.66;474794;115;386015;-71
2020/12/23 01:12:09;;;;;;;;;65.00;52.70;;;;;-0.45;66.00;101722.92;474518;115;385650;-72
2020/12/23 01:13:13;;;;;;;;;64.40;51.90;;;;;-0.45;66.00;101722.92;474792;115;386773;-71
2020/12/23 01:14:17;;;;;;;;;65.80;51.10;;;;;-0.33;65.95;101730.60;463799;117;386879;-74
2020/12/23 01:15:21;;;;;;;;;64.70;50.00;;;;;-0.33;65.95;101730.60;463912;115;388270;-73
2020/12/23 01:16:25;;;;;;;;;64.50;48.30;;;;;-0.32;65.95;101730.56;474769;115;388016;-71
2020/12/23 01:17:29;;;;;;;;;61.40;48.80;;;;;-0.31;65.70;101729.69;474830;115;386888;-73
2020/12/23 01:18:33;;;;;;;;;61.70;49.90;;;;;-0.31;65.70;101729.69;474812;115;387682;-73
2020/12/23 01:19:37;;;;;;;;;62.00;48.10;;;;;-0.35;65.87;101732.38;474824;115;387216;-74
2020/12/23 01:20:41;;;;;;;;;58.50;47.90;;;;;-0.35;65.87;101732.38;474395;115;386283;-75
2020/12/23 01:21:45;;;;;;;;;70.40;52.00;;;;;-0.31;65.90;101729.69;474468;115;387822;-75
2020/12/23 01:22:49;;;;;;;;;66.30;54.00;;;;;-0.25;65.39;101726.99;474872;115;386756;-75
2020/12/23 01:23:53;;;;;;;;;66.70;52.80;;;;;-0.26;65.17;101727.90;474370;115;387152;-75
2020/12/23 01:24:56;;;;;;;;;73.70;55.80;;;;;-0.25;65.04;101726.99;474466;115;387307;-75
2020/12/23 01:26:00;;;;;;;;;66.20;52.80;;;;;-0.24;65.09;101718.27;474454;115;384637;-77
2020/12/23 01:27:04;;;;;;;;;65.00;52.90;;;;;-0.25;64.66;101724.38;474872;115;386109;-77
2020/12/23 01:28:08;;;;;;;;;61.80;50.30;;;;;-0.22;64.33;101715.63;474828;115;386766;-75
2020/12/23 01:29:12;;;;;;;;;55.90;45.60;;;;;-0.21;64.22;101714.75;474878;115;385767;-74
2020/12/23 01:30:16;;;;;;;;;65.60;52.90;;;;;-0.21;64.22;101714.75;474592;115;386300;-75
2020/12/23 01:31:20;;;;;;;;;64.60;54.60;;;;;-0.32;64.25;101712.27;474834;115;387121;-76
2020/12/23 01:32:24;;;;;;;;;74.60;54.40;;;;;-0.36;64.62;101705.38;474834;115;386244;-75
2020/12/23 01:33:28;;;;;;;;;65.70;51.90;;;;;-0.36;64.62;101705.38;474453;115;384765;-75
2020/12/23 01:34:32;;;;;;;;;55.80;45.20;;;;;-0.38;64.74;101701.89;474424;115;385565;-74
2020/12/23 01:35:36;;;;;;;;;67.90;48.70;;;;;-0.37;64.74;101707.99;474374;115;391626;-74
2020/12/23 01:36:40;;;;;;;;;59.50;47.20;;;;;-0.34;64.63;101698.36;474641;115;385385;-75
2020/12/23 01:37:44;;;;;;;;;54.40;46.10;;;;;-0.35;64.67;101695.79;474800;115;385742;-77
2020/12/23 01:38:48;;;;;;;;;57.30;46.00;;;;;-0.36;64.51;101697.53;474385;115;386463;-74
2020/12/23 01:39:52;;;;;;;;;58.40;50.20;;;;;-0.32;64.85;101700.97;474808;115;386590;-74
2020/12/23 01:40:59;;;;;;;;;61.40;48.50;;;;;-0.28;64.67;101695.66;474854;115;386468;-76
2020/12/23 01:42:03;;;;;;;;;53.50;38.50;;;;;-0.28;64.67;101695.66;474117;115;386676;-77
2020/12/23 01:43:08;;;;;;;;;68.60;52.80;;;;;-0.28;65.00;101692.18;474371;115;386702;-75
2020/12/23 01:44:12;;;;;;;;;68.90;53.30;;;;;-0.33;65.58;101686.16;474616;115;386690;-76
2020/12/23 01:45:16;;;;;;;;;72.80;54.70;;;;;-0.37;64.95;101681.86;474772;115;387047;-76
2020/12/23 01:46:22;;;;;;;;;69.50;54.70;;;;;-0.48;65.45;101684.63;474401;115;384597;-76
2020/12/23 01:47:28;;;;;;;;;64.30;50.70;;;;;-0.54;65.08;101687.30;474571;115;386698;-76
2020/12/23 01:48:32;;;;;;;;;65.60;50.40;;;;;-0.54;65.08;101687.30;474630;115;387374;-75
2020/12/23 01:49:36;;;;;;;;;65.20;51.60;;;;;-0.55;65.56;101680.36;474641;115;385992;-77
2020/12/23 01:50:40;;;;;;;;;63.70;47.90;;;;;-0.58;66.18;101683.02;474838;115;386855;-75
2020/12/23 01:51:44;;;;;;;;;63.00;48.70;;;;;-0.56;66.92;101696.91;474818;115;387456;-75
2020/12/23 01:52:47;;;;;;;;;58.50;45.70;;;;;-0.55;66.23;101681.23;474822;115;387383;-75
2020/12/23 01:53:51;;;;;;;;;62.10;47.30;;;;;-0.55;66.50;101681.23;463806;118;386511;-75
2020/12/23 01:54:55;;;;;;;;;56.30;46.00;;;;;-0.55;66.50;101681.23;464255;118;386360;-75
2020/12/23 01:55:59;;;;;;;;;52.30;42.50;;;;;-0.57;65.60;101677.75;474780;115;386749;-75
2020/12/23 01:57:03;;;;;;;;;48.40;38.60;;;;;-0.57;65.60;101677.75;474843;115;386520;-76
2020/12/23 01:58:07;;;;;;;;;46.50;40.80;;;;;-0.51;66.00;101675.97;474867;115;385132;-74
2020/12/23 01:59:11;;;;;;;;;59.70;43.60;;;;;-0.51;66.00;101675.97;474861;115;386504;-76
2020/12/23 02:00:15;;;;;;;;;53.50;42.00;;;;;-0.40;65.60;101674.93;474790;115;386828;-77
2020/12/23 02:01:20;;;;;;;;;45.50;43.00;;;;;-0.38;65.43;101680.15;474803;115;385587;-76
2020/12/23 02:02:31;;;;;;;;;53.20;44.70;;;;;-0.35;65.33;101680.11;474587;115;386103;-77
2020/12/23 02:03:36;;;;;;;;;72.30;48.60;;;;;-0.35;65.22;101680.11;474522;115;388092;-77
2020/12/23 02:04:40;;;;;;;;;66.60;52.20;;;;;-0.35;65.22;101680.11;474122;115;385067;-77
2020/12/23 02:05:44;;;;;;;;;68.50;52.60;;;;;-0.39;65.45;101674.05;474882;115;385134;-76
2020/12/23 02:06:48;;;;;;;;;65.90;51.30;;;;;-0.43;66.21;101672.36;474427;115;385332;-76
2020/12/23 02:07:52;;;;;;;;;65.40;47.90;;;;;-0.47;65.44;101675.89;463694;118;388770;-75
2020/12/23 02:08:56;;;;;;;;;66.70;51.80;;;;;-0.47;65.44;101675.89;463871;118;385418;-76
2020/12/23 02:10:00;;;;;;;;;69.40;55.00;;;;;-0.54;65.20;101671.62;474523;115;385790;-76
2020/12/23 02:11:06;;;;;;;;;60.40;45.50;;;;;-0.52;65.41;101677.71;474591;115;386190;-76
2020/12/23 02:12:10;;;;;;;;;67.70;49.50;;;;;-0.50;65.84;101678.55;474788;115;387053;-76
2020/12/23 02:13:13;;;;;;;;;66.10;49.70;;;;;-0.45;65.55;101679.36;474775;115;388603;-77
2020/12/23 02:14:17;;;;;;;;;71.00;52.00;;;;;-0.49;65.48;101672.44;474831;115;386943;-76
2020/12/23 02:15:23;;;;;;;;;65.20;51.10;;;;;-0.48;66.24;101670.70;474772;115;384606;-74
2020/12/23 02:16:28;;;;;;;;;62.50;48.10;;;;;-0.48;66.24;101670.70;474059;115;386346;-75
2020/12/23 02:17:32;;;;;;;;;58.20;46.60;;;;;-0.47;66.00;101678.50;474772;115;390408;-74
2020/12/23 02:18:36;;;;;;;;;63.90;45.70;;;;;-0.45;65.46;101668.05;474866;115;386974;-76
2020/12/23 02:19:49;;;;;;;;;57.20;44.80;;;;;-0.45;65.46;101668.05;474438;115;387478;-74
2020/12/23 02:20:53;;;;;;;;;61.80;47.00;;;;;-0.37;65.88;101674.88;474044;115;387299;-76
2020/12/23 02:21:58;;;;;;;;;52.20;42.80;;;;;-0.36;65.17;101675.75;474819;115;385743;-75
2020/12/23 02:23:02;;;;;;;;;61.00;44.90;;;;;-0.34;65.48;101674.84;474506;115;388333;-75
2020/12/23 02:24:05;;;;;;;;;54.40;44.40;;;;;-0.32;65.93;101675.67;474795;115;385603;-75
2020/12/23 02:25:10;;;;;;;;;47.60;41.90;;;;;-0.29;65.19;101673.05;474381;115;386607;-76
2020/12/23 02:26:14;;;;;;;;;15.40;11.10;;;;;-0.27;65.76;101668.65;474414;115;378472;-75
2020/12/23 02:27:17;;;;;;;;;54.20;43.40;;;;;-0.27;65.48;101673.01;474784;115;392081;-75
2020/12/23 02:28:21;;;;;;;;;60.60;46.30;;;;;-0.27;65.48;101673.01;474818;115;386940;-73
2020/12/23 02:29:26;;;;;;;;;52.20;44.00;;;;;-0.30;65.35;101665.21;474421;115;386063;-74
2020/12/23 02:30:29;;;;;;;;;66.40;50.30;;;;;-0.33;65.10;101667.87;474792;115;386511;-74
2020/12/23 02:31:33;;;;;;;;;66.70;50.60;;;;;-0.35;65.31;101665.27;474423;115;386183;-76
2020/12/23 02:32:37;;;;;;;;;71.90;52.30;;;;;-0.35;65.31;101665.27;474761;115;388823;-75
2020/12/23 02:33:41;;;;;;;;;68.80;51.30;;;;;-0.37;65.34;101667.05;474416;115;386952;-76
2020/12/23 02:34:45;;;;;;;;;77.40;57.10;;;;;-0.37;65.34;101667.05;474835;115;388871;-74
2020/12/23 02:35:49;;;;;;;;;71.60;53.10;;;;;-0.37;65.72;101666.17;474782;115;385637;-74
2020/12/23 02:36:53;;;;;;;;;80.30;57.90;;;;;-0.40;65.73;101659.25;474865;115;387148;-74
2020/12/23 02:37:57;;;;;;;;;68.70;51.00;;;;;-0.38;66.24;101667.92;474801;115;386779;-75
2020/12/23 02:39:01;;;;;;;;;58.20;46.60;;;;;-0.37;66.17;101661.81;474864;115;383654;-76
2020/12/23 02:40:05;;;;;;;;;65.10;47.80;;;;;-0.37;66.02;101667.05;474833;115;385996;-77
2020/12/23 02:41:09;;;;;;;;;63.00;50.00;;;;;-0.37;66.02;101667.05;474598;115;386155;-78
2020/12/23 02:42:13;;;;;;;;;66.10;47.60;;;;;-0.39;66.09;101666.21;474833;115;387727;-76
2020/12/23 02:43:17;;;;;;;;;54.50;49.80;;;;;-0.39;66.09;101666.21;474393;115;386254;-74
2020/12/23 02:44:21;;;;;;;;;70.50;54.10;;;;;-0.38;66.18;101665.30;474327;115;387135;-77
2020/12/23 02:45:25;;;;;;;;;71.60;54.10;;;;;-0.33;66.12;101667.87;474861;115;387140;-75
2020/12/23 02:46:28;;;;;;;;;62.00;45.70;;;;;-0.32;66.02;101670.44;474353;115;387954;-74
2020/12/23 02:47:32;;;;;;;;;76.90;56.30;;;;;-0.34;65.98;101672.23;474830;115;385996;-75
2020/12/23 02:48:36;;;;;;;;;81.00;55.00;;;;;-0.32;65.86;101665.22;474308;115;388187;-74
2020/12/23 02:49:40;;;;;;;;;69.20;52.70;;;;;-0.32;65.76;101662.60;474815;115;387683;-75
2020/12/23 02:50:46;;;;;;;;;66.40;51.60;;;;;-0.31;65.21;101669.56;474493;115;387034;-74
2020/12/23 02:51:49;;;;;;;;;75.20;53.60;;;;;-0.30;65.55;101667.83;474763;115;387812;-75
2020/12/23 02:52:53;;;;;;;;;78.40;56.00;;;;;-0.30;65.55;101667.83;474797;115;388072;-76
2020/12/23 02:53:57;;;;;;;;;72.10;54.30;;;;;-0.32;65.25;101665.22;474809;115;386011;-75
2020/12/23 02:55:01;;;;;;;;;69.90;52.50;;;;;-0.31;65.20;101660.86;474849;115;387269;-75
2020/12/23 02:56:05;;;;;;;;;74.30;51.30;;;;;-0.28;65.31;101671.27;474340;115;388665;-76
2020/12/23 02:57:10;;;;;;;;;63.10;50.50;;;;;-0.28;65.31;101671.27;474529;115;387644;-75
2020/12/23 02:58:14;;;;;;;;;60.50;50.80;;;;;-0.27;65.20;101667.78;474357;115;386334;-76
2020/12/23 02:59:17;;;;;;;;;64.80;51.10;;;;;-0.29;64.98;101662.59;474884;115;385309;-77
2020/12/23 03:00:21;;;;;;;;;61.30;52.80;;;;;-0.29;64.98;101662.59;474831;115;386256;-78
2020/12/23 03:01:25;;;;;;;;;53.20;46.50;;;;;-0.30;65.30;101667.83;474368;115;386782;-77
2020/12/23 03:02:29;;;;;;;;;60.80;46.80;;;;;-0.31;65.20;101666.95;474710;115;392457;-76
2020/12/23 03:03:33;;;;;;;;;62.60;48.70;;;;;-0.32;65.18;101667.83;474804;115;387457;-76
2020/12/23 03:04:37;;;;;;;;;60.40;49.00;;;;;-0.30;65.34;101663.47;474814;115;386435;-76
2020/12/23 03:05:41;;;;;;;;;63.80;50.50;;;;;-0.30;65.03;101666.08;474370;115;386883;-77
2020/12/23 03:06:45;;;;;;;;;54.50;45.60;;;;;-0.30;65.03;101666.08;474355;115;385947;-76
2020/12/23 03:07:48;;;;;;;;;63.40;51.80;;;;;-0.39;65.82;101658.38;474818;115;386075;-77
2020/12/23 03:08:52;;;;;;;;;57.60;44.30;;;;;-0.39;65.64;101660.98;474772;115;386351;-76
2020/12/23 03:09:56;;;;;;;;;63.10;48.60;;;;;-0.38;65.76;101661.86;474292;115;386616;-76
2020/12/23 03:11:00;;;;;;;;;51.70;44.50;;;;;-0.36;65.87;101657.45;474856;115;385642;-75
2020/12/23 03:12:04;;;;;;;;;59.50;48.40;;;;;-0.37;65.52;101651.36;474380;115;386281;-76
2020/12/23 03:13:08;;;;;;;;;53.90;45.50;;;;;-0.35;65.52;101656.58;474832;115;385472;-76
2020/12/23 03:14:12;;;;;;;;;56.10;45.20;;;;;-0.35;65.78;101659.20;474841;115;386353;-75
2020/12/23 03:15:16;;;;;;;;;57.60;48.10;;;;;-0.33;65.47;101650.44;474354;115;385637;-75
2020/12/23 03:16:20;;;;;;;;;56.00;44.10;;;;;-0.29;65.11;101651.27;474950;115;386112;-77
2020/12/23 03:17:24;;;;;;;;;60.30;48.40;;;;;-0.31;65.14;101640.81;474838;115;386503;-75
2020/12/23 03:18:27;;;;;;;;;55.70;44.40;;;;;-0.30;65.37;101655.62;474535;115;385190;-74
2020/12/23 03:19:31;;;;;;;;;64.80;47.80;;;;;-0.25;65.69;101645.95;474871;115;387723;-76
2020/12/23 03:20:35;;;;;;;;;56.40;44.90;;;;;-0.25;64.85;101651.18;474389;115;386435;-79
2020/12/23 03:21:39;;;;;;;;;52.50;45.70;;;;;-0.25;64.85;101651.18;474873;115;386742;-79
2020/12/23 03:22:43;;;;;;;;;54.80;45.80;;;;;-0.34;65.37;101651.31;474864;115;386784;-79
2020/12/23 03:23:47;;;;;;;;;54.10;43.80;;;;;-0.34;65.37;101651.31;465934;117;386509;-79
2020/12/23 03:24:51;;;;;;;;;52.60;42.90;;;;;-0.38;65.50;101649.63;468249;117;385811;-78
2020/12/23 03:25:55;;;;;;;;;60.60;44.90;;;;;-0.46;66.02;101643.66;474864;115;386341;-79
2020/12/23 03:26:58;;;;;;;;;39.40;37.50;;;;;-0.46;66.02;101643.66;474427;115;384757;-80
2020/12/23 03:28:02;;;;;;;;;53.50;44.10;;;;;-0.52;66.32;101642.88;474445;115;386482;-81
2020/12/23 03:29:06;;;;;;;;;43.20;35.70;;;;;-0.63;66.48;101643.00;474451;115;387199;-80
2020/12/23 03:30:10;;;;;;;;;56.91;40.55;;;;;-0.63;66.48;101643.00;474830;115;392016;-81
2020/12/23 03:31:14;;;;;;;;;49.10;40.90;;;;;-0.65;66.85;101637.81;474407;115;387680;-80
2020/12/23 03:32:18;;;;;;;;;43.10;37.80;;;;;-0.68;66.94;101637.86;474862;115;385058;-78
2020/12/23 03:33:22;;;;;;;;;44.20;39.20;;;;;-0.64;67.66;101636.91;474612;115;385722;-79
2020/12/23 03:34:25;;;;;;;;;50.90;42.50;;;;;-0.66;66.74;101638.69;474873;115;384395;-79
2020/12/23 03:35:29;;;;;;;;;49.90;39.60;;;;;-0.68;67.13;101642.22;474849;115;386655;-76
2020/12/23 03:36:33;;;;;;;;;49.60;42.00;;;;;-0.65;66.59;101643.04;474524;115;386102;-73
2020/12/23 03:37:37;;;;;;;;;42.30;33.70;;;;;-0.68;66.31;101644.83;474869;115;385322;-77
2020/12/23 03:38:41;;;;;;;;;44.90;36.70;;;;;-0.68;66.31;101644.83;463265;115;385650;-74
2020/12/23 03:39:45;;;;;;;;;49.90;39.80;;;;;-0.65;66.53;101648.27;440386;124;385491;-78
2020/12/23 03:40:50;;;;;;;;;41.60;38.30;;;;;-0.62;67.11;101644.74;439859;124;385492;-79
2020/12/23 03:41:54;;;;;;;;;52.40;43.50;;;;;-0.62;67.11;101644.74;440085;124;387282;-77
2020/12/23 03:42:58;;;;;;;;;57.50;40.70;;;;;-0.54;66.58;101658.55;440406;124;387319;-77
2020/12/23 03:44:02;;;;;;;;;55.20;45.10;;;;;-0.51;66.05;101650.67;433008;126;386928;-76
2020/12/23 03:45:05;;;;;;;;;46.80;42.20;;;;;-0.51;66.08;101655.90;433157;126;384919;-75
2020/12/23 03:46:10;;;;;;;;;51.09;40.55;;;;;-0.51;66.08;101655.90;440416;124;391393;-78
2020/12/23 03:47:13;;;;;;;;;50.90;44.00;;;;;-0.49;66.02;101661.98;440457;124;384545;-78
2020/12/23 03:48:17;;;;;;;;;52.40;43.40;;;;;-0.48;65.90;101649.80;440417;124;386287;-82
2020/12/23 03:49:22;;;;;;;;;42.70;32.20;;;;;-0.45;65.89;101652.36;440377;124;387665;-80
2020/12/23 03:50:26;;;;;;;;;50.60;42.30;;;;;-0.45;65.89;101652.36;440154;124;385239;-79
2020/12/23 03:51:30;;;;;;;;;57.10;44.90;;;;;-0.44;65.48;101654.94;440406;124;387926;-78
2020/12/23 03:52:34;;;;;;;;;56.00;44.70;;;;;-0.40;65.29;101658.38;440392;124;386462;-76
2020/12/23 03:53:37;;;;;;;;;56.00;45.20;;;;;-0.40;65.29;101658.38;439998;124;387143;-75
2020/12/23 03:54:41;;;;;;;;;44.70;40.00;;;;;-0.34;65.53;101655.67;440406;124;386583;-76
2020/12/23 03:55:45;;;;;;;;;44.50;36.80;;;;;-0.34;65.53;101655.67;440462;124;385067;-77
2020/12/23 03:56:49;;;;;;;;;55.60;44.40;;;;;-0.33;65.27;101657.41;440430;124;386815;-77
2020/12/23 03:57:53;;;;;;;;;48.80;41.80;;;;;-0.34;65.56;101661.77;440127;124;385312;-75
2020/12/23 03:58:57;;;;;;;;;44.60;35.30;;;;;-0.34;65.09;101661.77;440159;124;386633;-76
2020/12/23 04:00:01;;;;;;;;;51.10;43.70;;;;;-0.36;65.25;101655.72;440148;124;384909;-77
2020/12/23 04:01:05;;;;;;;;;50.50;41.30;;;;;-0.34;65.53;101656.55;440607;124;387237;-77
2020/12/23 04:02:08;;;;;;;;;37.30;32.80;;;;;-0.37;64.64;101659.20;440181;124;383964;-75
2020/12/23 04:03:12;;;;;;;;;43.20;41.00;;;;;-0.37;64.64;101659.20;440262;124;385755;-75
2020/12/23 04:04:16;;;;;;;;;49.80;41.10;;;;;-0.34;64.98;101666.12;440584;124;385716;-77
2020/12/23 04:05:20;;;;;;;;;59.40;46.20;;;;;-0.34;65.16;101661.77;440545;124;386757;-74
2020/12/23 04:06:26;;;;;;;;;59.30;44.20;;;;;-0.36;65.06;101665.30;440650;124;387247;-75
2020/12/23 04:07:30;;;;;;;;;51.60;45.70;;;;;-0.38;64.86;101662.69;440249;124;386867;-73
2020/12/23 04:08:38;;;;;;;;;55.80;43.90;;;;;-0.38;64.68;101667.92;440638;124;387637;-73
2020/12/23 04:09:42;;;;;;;;;56.30;43.70;;;;;-0.32;64.54;101669.61;440299;124;386330;-79
2020/12/23 04:10:45;;;;;;;;;37.20;34.40;;;;;-0.29;64.64;101664.34;440715;124;383985;-76
2020/12/23 04:11:49;;;;;;;;;64.00;48.50;;;;;-0.29;64.77;101662.59;440222;124;387622;-81
2020/12/23 04:12:53;;;;;;;;;59.80;47.10;;;;;-0.29;64.77;101662.59;440580;124;387274;-80
2020/12/23 04:13:57;;;;;;;;;60.90;48.30;;;;;-0.28;65.00;101666.91;440519;124;387430;-78
2020/12/23 04:15:01;;;;;;;;;58.70;47.00;;;;;-0.34;65.20;101667.00;440612;124;387090;-77
2020/12/23 04:16:05;;;;;;;;;58.00;47.10;;;;;-0.30;65.58;101668.69;440566;124;386809;-79
2020/12/23 04:17:09;;;;;;;;;59.40;47.50;;;;;-0.36;64.90;101666.17;433932;126;386537;-81
2020/12/23 04:18:13;;;;;;;;;58.30;48.80;;;;;-0.36;64.90;101666.17;434278;126;385151;-81
2020/12/23 04:19:17;;;;;;;;;58.50;47.80;;;;;-0.50;65.08;101662.86;440550;124;386371;-79
2020/12/23 04:20:21;;;;;;;;;55.20;43.70;;;;;-0.50;65.08;101662.86;440632;124;386526;-77
2020/12/23 04:21:25;;;;;;;;;52.00;44.90;;;;;-0.46;64.99;101655.85;440618;124;386285;-78
2020/12/23 04:22:29;;;;;;;;;57.00;46.10;;;;;-0.39;65.47;101657.50;439994;124;385204;-78
2020/12/23 04:23:33;;;;;;;;;49.30;41.60;;;;;-0.37;65.74;101656.59;440545;124;386280;-77
2020/12/23 04:24:37;;;;;;;;;57.10;41.70;;;;;-0.37;65.74;101656.59;440253;124;387834;-79
2020/12/23 04:25:41;;;;;;;;;56.00;46.00;;;;;-0.52;66.44;101658.55;440577;124;386950;-78
2020/12/23 04:26:45;;;;;;;;;60.10;50.70;;;;;-0.56;65.92;101652.50;440399;124;385729;-79
2020/12/23 04:27:49;;;;;;;;;63.80;50.50;;;;;-0.56;65.92;101652.50;440580;124;385562;-78
2020/12/23 04:28:53;;;;;;;;;56.10;47.10;;;;;-0.64;66.62;101651.75;440659;124;384778;-78
2020/12/23 04:29:57;;;;;;;;;68.10;52.30;;;;;-0.64;66.62;101651.75;440609;124;385757;-76
2020/12/23 04:31:01;;;;;;;;;54.80;44.50;;;;;-0.66;67.17;101648.27;440212;124;386198;-77
2020/12/23 04:32:05;;;;;;;;;60.20;47.80;;;;;-0.56;66.24;101652.50;440609;124;387055;-77
2020/12/23 04:33:09;;;;;;;;;63.70;49.20;;;;;-0.51;66.00;101648.06;440563;124;386679;-76
2020/12/23 04:34:12;;;;;;;;;67.00;50.30;;;;;-0.48;66.37;101645.44;440571;124;386066;-78
2020/12/23 04:35:16;;;;;;;;;54.90;48.90;;;;;-0.48;66.37;101645.44;440570;124;386812;-76
2020/12/23 04:36:20;;;;;;;;;58.20;47.00;;;;;-0.47;66.09;101648.89;439929;124;385500;-77
2020/12/23 04:37:24;;;;;;;;;58.30;46.20;;;;;-0.47;66.52;101652.37;440627;124;386347;-77
2020/12/23 04:38:28;;;;;;;;;63.00;47.90;;;;;-0.45;66.18;101653.23;440641;124;387056;-76
2020/12/23 04:39:32;;;;;;;;;52.80;41.10;;;;;-0.46;65.86;101651.49;440559;124;386449;-77
2020/12/23 04:40:39;;;;;;;;;49.50;42.20;;;;;-0.45;65.76;101658.46;440310;124;385418;-78
2020/12/23 04:41:43;;;;;;;;;83.40;63.30;;;;;-0.52;65.36;101650.71;440253;124;387920;-77
2020/12/23 04:42:47;;;;;;;;;82.80;63.10;;;;;-0.52;65.36;101650.71;440603;124;387760;-77
2020/12/23 04:43:51;;;;;;;;;66.50;51.10;;;;;-0.57;66.35;101653.37;440595;124;384905;-77
2020/12/23 04:44:56;;;;;;;;;61.50;48.80;;;;;-0.52;65.49;101650.71;440309;124;386804;-77
2020/12/23 04:46:00;;;;;;;;;54.40;42.30;;;;;-0.51;66.19;101648.06;440343;124;387177;-78
2020/12/23 04:47:04;;;;;;;;;55.50;44.60;;;;;-0.55;66.59;101662.94;440394;124;385328;-77
2020/12/23 04:48:09;;;;;;;;;68.20;50.70;;;;;-0.55;66.42;101657.72;440342;124;385700;-77